sensor_id;sensor_type;location;lat;lon;timestamp;P1;durP1;ratioP1;P2;durP2;ratioP2
62709;SDS011;48770;51.624;5.886;2022-09-09T00:01:25;0.80;;;0.30;;
62709;SDS011;48770;51.624;5.886;2022-09-09T00:04:27;0.85;;;0.20;;
62709;SDS011;48770;51.624;5.886;2022-09-09T00:09:29;0.80;;;0.28;;
62709;SDS011;48770;51.624;5.886;2022-09-09T00:12:12;1.30;;;0.20;;
62709;SDS011;48770;51.624;5.886;2022-09-09T00:14:54;0.70;;;0.25;;
62709;SDS011;48770;51.624;5.886;2022-09-09T00:22:43;0.85;;;0.30;;
62709;SDS011;48770;51.624;5.886;2022-09-09T00:28:12;0.90;;;0.30;;
62709;SDS011;48770;51.624;5.886;2022-09-09T00:30:42;0.85;;;0.17;;
62709;SDS011;48770;51.624;5.886;2022-09-09T00:33:10;1.42;;;0.15;;
62709;SDS011;48770;51.624;5.886;2022-09-09T00:35:41;0.55;;;0.22;;
62709;SDS011;48770;51.624;5.886;2022-09-09T00:38:25;1.75;;;0.20;;
62709;SDS011;48770;51.624;5.886;2022-09-09T00:44:00;1.27;;;0.22;;
62709;SDS011;48770;51.624;5.886;2022-09-09T00:52:23;2.33;;;0.20;;
62709;SDS011;48770;51.624;5.886;2022-09-09T00:58:06;0.40;;;0.10;;
62709;SDS011;48770;51.624;5.886;2022-09-09T01:00:41;2.85;;;0.28;;
62709;SDS011;48770;51.624;5.886;2022-09-09T01:03:17;1.20;;;0.32;;
62709;SDS011;48770;51.624;5.886;2022-09-09T01:05:58;1.88;;;0.50;;
62709;SDS011;48770;51.624;5.886;2022-09-09T01:12:11;1.10;;;0.47;;
62709;SDS011;48770;51.624;5.886;2022-09-09T01:22:58;1.73;;;0.50;;
62709;SDS011;48770;51.624;5.886;2022-09-09T01:28:22;1.95;;;0.60;;
62709;SDS011;48770;51.624;5.886;2022-09-09T01:30:52;1.65;;;0.57;;
62709;SDS011;48770;51.624;5.886;2022-09-09T01:33:18;2.83;;;0.50;;
62709;SDS011;48770;51.624;5.886;2022-09-09T01:36:00;1.33;;;0.30;;
62709;SDS011;48770;51.624;5.886;2022-09-09T01:38:31;1.45;;;0.60;;
62709;SDS011;48770;51.624;5.886;2022-09-09T01:40:58;1.30;;;0.40;;
62709;SDS011;48770;51.624;5.886;2022-09-09T01:43:24;1.33;;;0.40;;
62709;SDS011;48770;51.624;5.886;2022-09-09T01:45:53;2.15;;;0.30;;
62709;SDS011;48770;51.624;5.886;2022-09-09T01:48:21;2.25;;;0.60;;
62709;SDS011;48770;51.624;5.886;2022-09-09T01:50:48;1.15;;;0.40;;
62709;SDS011;48770;51.624;5.886;2022-09-09T01:53:14;2.80;;;0.43;;
62709;SDS011;48770;51.624;5.886;2022-09-09T01:55:42;1.58;;;0.40;;
62709;SDS011;48770;51.624;5.886;2022-09-09T01:58:27;1.08;;;0.40;;
62709;SDS011;48770;51.624;5.886;2022-09-09T02:01:17;1.85;;;0.52;;
62709;SDS011;48770;51.624;5.886;2022-09-09T02:03:54;0.90;;;0.30;;
62709;SDS011;48770;51.624;5.886;2022-09-09T02:08:52;0.88;;;0.32;;
62709;SDS011;48770;51.624;5.886;2022-09-09T02:11:21;1.08;;;0.50;;
62709;SDS011;48770;51.624;5.886;2022-09-09T02:13:50;1.67;;;0.60;;
62709;SDS011;48770;51.624;5.886;2022-09-09T02:17:01;3.10;;;0.52;;
62709;SDS011;48770;51.624;5.886;2022-09-09T02:19:17;1.30;;;0.30;;
62709;SDS011;48770;51.624;5.886;2022-09-09T02:21:50;2.13;;;0.45;;
62709;SDS011;48770;51.624;5.886;2022-09-09T02:24:19;1.48;;;0.40;;
62709;SDS011;48770;51.624;5.886;2022-09-09T02:26:44;1.20;;;0.30;;
62709;SDS011;48770;51.624;5.886;2022-09-09T02:29:23;0.60;;;0.35;;
62709;SDS011;48770;51.624;5.886;2022-09-09T02:31:52;1.10;;;0.30;;
62709;SDS011;48770;51.624;5.886;2022-09-09T02:34:23;0.65;;;0.30;;
62709;SDS011;48770;51.624;5.886;2022-09-09T02:36:50;1.33;;;0.40;;
62709;SDS011;48770;51.624;5.886;2022-09-09T02:39:18;2.28;;;0.20;;
62709;SDS011;48770;51.624;5.886;2022-09-09T02:41:44;1.25;;;0.30;;
62709;SDS011;48770;51.624;5.886;2022-09-09T02:44:10;1.00;;;0.20;;
62709;SDS011;48770;51.624;5.886;2022-09-09T02:49:55;0.50;;;0.30;;
62709;SDS011;48770;51.624;5.886;2022-09-09T02:52:26;0.85;;;0.43;;
62709;SDS011;48770;51.624;5.886;2022-09-09T02:54:59;0.73;;;0.30;;
62709;SDS011;48770;51.624;5.886;2022-09-09T02:57:36;1.17;;;0.30;;
62709;SDS011;48770;51.624;5.886;2022-09-09T03:00:03;0.32;;;0.13;;
62709;SDS011;48770;51.624;5.886;2022-09-09T03:02:29;3.78;;;0.38;;
62709;SDS011;48770;51.624;5.886;2022-09-09T03:04:55;4.88;;;0.50;;
62709;SDS011;48770;51.624;5.886;2022-09-09T03:07:20;0.73;;;0.40;;
62709;SDS011;48770;51.624;5.886;2022-09-09T03:09:46;1.30;;;0.30;;
62709;SDS011;48770;51.624;5.886;2022-09-09T03:12:12;0.98;;;0.30;;
62709;SDS011;48770;51.624;5.886;2022-09-09T03:14:37;1.23;;;0.32;;
62709;SDS011;48770;51.624;5.886;2022-09-09T03:17:04;3.58;;;0.50;;
62709;SDS011;48770;51.624;5.886;2022-09-09T03:19:30;1.52;;;0.28;;
62709;SDS011;48770;51.624;5.886;2022-09-09T03:21:55;0.95;;;0.30;;
62709;SDS011;48770;51.624;5.886;2022-09-09T03:24:21;1.63;;;0.47;;
62709;SDS011;48770;51.624;5.886;2022-09-09T03:26:47;1.67;;;0.50;;
62709;SDS011;48770;51.624;5.886;2022-09-09T03:29:13;1.45;;;0.43;;
62709;SDS011;48770;51.624;5.886;2022-09-09T03:31:38;2.00;;;0.40;;
62709;SDS011;48770;51.624;5.886;2022-09-09T03:34:04;1.77;;;0.50;;
62709;SDS011;48770;51.624;5.886;2022-09-09T03:36:30;1.27;;;0.55;;
62709;SDS011;48770;51.624;5.886;2022-09-09T03:38:56;1.70;;;0.30;;
62709;SDS011;48770;51.624;5.886;2022-09-09T03:41:22;0.50;;;0.20;;
62709;SDS011;48770;51.624;5.886;2022-09-09T03:43:49;1.25;;;0.30;;
62709;SDS011;48770;51.624;5.886;2022-09-09T03:46:18;0.75;;;0.60;;
62709;SDS011;48770;51.624;5.886;2022-09-09T03:48:44;0.80;;;0.40;;
62709;SDS011;48770;51.624;5.886;2022-09-09T03:51:09;1.67;;;0.30;;
62709;SDS011;48770;51.624;5.886;2022-09-09T03:53:35;1.75;;;0.30;;
62709;SDS011;48770;51.624;5.886;2022-09-09T03:56:03;1.65;;;0.30;;
62709;SDS011;48770;51.624;5.886;2022-09-09T03:58:31;0.82;;;0.30;;
62709;SDS011;48770;51.624;5.886;2022-09-09T04:00:58;1.48;;;0.30;;
62709;SDS011;48770;51.624;5.886;2022-09-09T04:03:24;1.35;;;0.40;;
62709;SDS011;48770;51.624;5.886;2022-09-09T04:05:54;1.23;;;0.40;;
62709;SDS011;48770;51.624;5.886;2022-09-09T04:08:21;2.10;;;0.50;;
62709;SDS011;48770;51.624;5.886;2022-09-09T04:10:47;1.05;;;0.30;;
62709;SDS011;48770;51.624;5.886;2022-09-09T04:13:14;3.17;;;0.50;;
62709;SDS011;48770;51.624;5.886;2022-09-09T04:15:42;1.20;;;0.40;;
62709;SDS011;48770;51.624;5.886;2022-09-09T04:18:08;0.88;;;0.22;;
62709;SDS011;48770;51.624;5.886;2022-09-09T04:20:34;1.38;;;0.43;;
62709;SDS011;48770;51.624;5.886;2022-09-09T04:23:00;4.25;;;0.57;;
62709;SDS011;48770;51.624;5.886;2022-09-09T04:25:25;1.30;;;0.40;;
62709;SDS011;48770;51.624;5.886;2022-09-09T04:27:54;1.05;;;0.40;;
62709;SDS011;48770;51.624;5.886;2022-09-09T04:30:21;1.52;;;0.60;;
62709;SDS011;48770;51.624;5.886;2022-09-09T04:32:46;1.38;;;0.50;;
62709;SDS011;48770;51.624;5.886;2022-09-09T04:35:12;1.20;;;0.60;;
62709;SDS011;48770;51.624;5.886;2022-09-09T04:37:37;2.08;;;0.40;;
62709;SDS011;48770;51.624;5.886;2022-09-09T04:40:03;0.85;;;0.35;;
62709;SDS011;48770;51.624;5.886;2022-09-09T04:42:28;0.68;;;0.30;;
62709;SDS011;48770;51.624;5.886;2022-09-09T04:44:53;1.35;;;0.43;;
62709;SDS011;48770;51.624;5.886;2022-09-09T04:47:19;1.15;;;0.30;;
62709;SDS011;48770;51.624;5.886;2022-09-09T04:49:44;2.97;;;0.47;;
62709;SDS011;48770;51.624;5.886;2022-09-09T04:52:10;1.37;;;0.50;;
62709;SDS011;48770;51.624;5.886;2022-09-09T04:54:35;1.02;;;0.30;;
62709;SDS011;48770;51.624;5.886;2022-09-09T04:57:00;1.25;;;0.50;;
62709;SDS011;48770;51.624;5.886;2022-09-09T04:59:26;1.70;;;0.30;;
62709;SDS011;48770;51.624;5.886;2022-09-09T05:01:51;1.10;;;0.40;;
62709;SDS011;48770;51.624;5.886;2022-09-09T05:04:16;0.63;;;0.28;;
62709;SDS011;48770;51.624;5.886;2022-09-09T05:06:41;1.15;;;0.30;;
62709;SDS011;48770;51.624;5.886;2022-09-09T05:09:07;1.05;;;0.32;;
62709;SDS011;48770;51.624;5.886;2022-09-09T05:11:33;1.75;;;0.35;;
62709;SDS011;48770;51.624;5.886;2022-09-09T05:14:01;2.47;;;0.40;;
62709;SDS011;48770;51.624;5.886;2022-09-09T05:16:27;2.63;;;0.40;;
62709;SDS011;48770;51.624;5.886;2022-09-09T05:18:52;1.02;;;0.30;;
62709;SDS011;48770;51.624;5.886;2022-09-09T05:21:18;2.20;;;0.43;;
62709;SDS011;48770;51.624;5.886;2022-09-09T05:23:45;0.85;;;0.43;;
62709;SDS011;48770;51.624;5.886;2022-09-09T05:26:12;2.50;;;0.50;;
62709;SDS011;48770;51.624;5.886;2022-09-09T05:28:39;1.55;;;0.50;;
62709;SDS011;48770;51.624;5.886;2022-09-09T05:31:06;2.28;;;0.43;;
62709;SDS011;48770;51.624;5.886;2022-09-09T05:33:37;1.40;;;0.40;;
62709;SDS011;48770;51.624;5.886;2022-09-09T05:36:06;1.77;;;0.35;;
62709;SDS011;48770;51.624;5.886;2022-09-09T05:38:33;1.35;;;0.38;;
62709;SDS011;48770;51.624;5.886;2022-09-09T05:41:00;1.75;;;0.52;;
62709;SDS011;48770;51.624;5.886;2022-09-09T05:43:26;2.28;;;0.40;;
62709;SDS011;48770;51.624;5.886;2022-09-09T05:46:02;2.88;;;0.70;;
62709;SDS011;48770;51.624;5.886;2022-09-09T05:48:33;0.80;;;0.32;;
62709;SDS011;48770;51.624;5.886;2022-09-09T05:51:00;1.77;;;0.30;;
62709;SDS011;48770;51.624;5.886;2022-09-09T05:53:28;0.77;;;0.40;;
62709;SDS011;48770;51.624;5.886;2022-09-09T05:56:15;2.97;;;0.57;;
62709;SDS011;48770;51.624;5.886;2022-09-09T05:58:46;3.45;;;0.20;;
62709;SDS011;48770;51.624;5.886;2022-09-09T06:01:13;2.83;;;0.47;;
62709;SDS011;48770;51.624;5.886;2022-09-09T06:03:41;0.70;;;0.22;;
62709;SDS011;48770;51.624;5.886;2022-09-09T06:06:08;2.05;;;0.45;;
62709;SDS011;48770;51.624;5.886;2022-09-09T06:08:37;3.00;;;0.40;;
62709;SDS011;48770;51.624;5.886;2022-09-09T06:13:31;1.73;;;0.50;;
62709;SDS011;48770;51.624;5.886;2022-09-09T06:15:56;1.25;;;0.43;;
62709;SDS011;48770;51.624;5.886;2022-09-09T06:18:23;2.45;;;0.40;;
62709;SDS011;48770;51.624;5.886;2022-09-09T06:21:32;2.75;;;0.50;;
62709;SDS011;48770;51.624;5.886;2022-09-09T06:23:42;3.15;;;0.68;;
62709;SDS011;48770;51.624;5.886;2022-09-09T06:26:10;1.50;;;0.40;;
62709;SDS011;48770;51.624;5.886;2022-09-09T06:28:42;4.15;;;0.63;;
62709;SDS011;48770;51.624;5.886;2022-09-09T06:31:08;3.47;;;0.50;;
62709;SDS011;48770;51.624;5.886;2022-09-09T06:33:40;4.07;;;0.50;;
62709;SDS011;48770;51.624;5.886;2022-09-09T06:36:16;2.38;;;0.45;;
62709;SDS011;48770;51.624;5.886;2022-09-09T06:38:43;1.85;;;0.70;;
62709;SDS011;48770;51.624;5.886;2022-09-09T06:41:09;1.95;;;0.52;;
62709;SDS011;48770;51.624;5.886;2022-09-09T06:43:35;2.70;;;0.70;;
62709;SDS011;48770;51.624;5.886;2022-09-09T06:46:01;2.58;;;0.47;;
62709;SDS011;48770;51.624;5.886;2022-09-09T06:48:38;1.15;;;0.57;;
62709;SDS011;48770;51.624;5.886;2022-09-09T06:51:07;2.97;;;0.63;;
62709;SDS011;48770;51.624;5.886;2022-09-09T06:53:37;2.38;;;0.68;;
62709;SDS011;48770;51.624;5.886;2022-09-09T06:58:34;2.97;;;0.60;;
62709;SDS011;48770;51.624;5.886;2022-09-09T07:01:02;2.05;;;0.57;;
62709;SDS011;48770;51.624;5.886;2022-09-09T07:03:31;4.75;;;0.60;;
62709;SDS011;48770;51.624;5.886;2022-09-09T07:05:56;1.77;;;0.60;;
62709;SDS011;48770;51.624;5.886;2022-09-09T07:08:22;1.58;;;0.55;;
62709;SDS011;48770;51.624;5.886;2022-09-09T07:10:47;1.80;;;0.50;;
62709;SDS011;48770;51.624;5.886;2022-09-09T07:13:13;2.50;;;0.60;;
62709;SDS011;48770;51.624;5.886;2022-09-09T07:15:40;2.33;;;0.50;;
62709;SDS011;48770;51.624;5.886;2022-09-09T07:18:06;1.88;;;0.40;;
62709;SDS011;48770;51.624;5.886;2022-09-09T07:20:32;1.65;;;0.40;;
62709;SDS011;48770;51.624;5.886;2022-09-09T07:22:57;2.40;;;0.60;;
62709;SDS011;48770;51.624;5.886;2022-09-09T07:25:24;2.90;;;0.65;;
62709;SDS011;48770;51.624;5.886;2022-09-09T07:27:53;1.10;;;0.40;;
62709;SDS011;48770;51.624;5.886;2022-09-09T07:30:18;2.53;;;0.70;;
62709;SDS011;48770;51.624;5.886;2022-09-09T07:32:44;2.25;;;0.63;;
62709;SDS011;48770;51.624;5.886;2022-09-09T07:35:09;1.67;;;0.50;;
62709;SDS011;48770;51.624;5.886;2022-09-09T07:37:36;1.90;;;0.50;;
62709;SDS011;48770;51.624;5.886;2022-09-09T07:40:02;1.17;;;0.50;;
62709;SDS011;48770;51.624;5.886;2022-09-09T07:42:29;3.10;;;0.60;;
62709;SDS011;48770;51.624;5.886;2022-09-09T07:44:55;1.83;;;0.50;;
62709;SDS011;48770;51.624;5.886;2022-09-09T07:47:20;2.97;;;0.50;;
62709;SDS011;48770;51.624;5.886;2022-09-09T07:49:46;2.30;;;0.60;;
62709;SDS011;48770;51.624;5.886;2022-09-09T07:52:11;4.25;;;0.73;;
62709;SDS011;48770;51.624;5.886;2022-09-09T07:54:37;4.70;;;0.60;;
62709;SDS011;48770;51.624;5.886;2022-09-09T07:57:02;2.20;;;0.60;;
62709;SDS011;48770;51.624;5.886;2022-09-09T07:59:29;1.92;;;0.43;;
62709;SDS011;48770;51.624;5.886;2022-09-09T08:01:55;1.60;;;0.57;;
62709;SDS011;48770;51.624;5.886;2022-09-09T08:04:21;3.78;;;0.63;;
62709;SDS011;48770;51.624;5.886;2022-09-09T08:06:49;3.80;;;0.90;;
62709;SDS011;48770;51.624;5.886;2022-09-09T08:09:18;2.25;;;0.70;;
62709;SDS011;48770;51.624;5.886;2022-09-09T08:11:45;2.13;;;0.52;;
62709;SDS011;48770;51.624;5.886;2022-09-09T08:14:11;3.15;;;0.57;;
62709;SDS011;48770;51.624;5.886;2022-09-09T08:16:38;2.05;;;0.70;;
62709;SDS011;48770;51.624;5.886;2022-09-09T08:19:06;3.70;;;0.90;;
62709;SDS011;48770;51.624;5.886;2022-09-09T08:21:35;2.10;;;0.60;;
62709;SDS011;48770;51.624;5.886;2022-09-09T08:24:02;2.85;;;0.60;;
62709;SDS011;48770;51.624;5.886;2022-09-09T08:26:29;1.75;;;0.63;;
62709;SDS011;48770;51.624;5.886;2022-09-09T08:28:57;4.03;;;0.80;;
62709;SDS011;48770;51.624;5.886;2022-09-09T08:33:53;2.70;;;0.73;;
62709;SDS011;48770;51.624;5.886;2022-09-09T08:36:20;2.53;;;0.52;;
62709;SDS011;48770;51.624;5.886;2022-09-09T08:38:50;3.13;;;0.70;;
62709;SDS011;48770;51.624;5.886;2022-09-09T08:52:31;2.38;;;0.77;;
62709;SDS011;48770;51.624;5.886;2022-09-09T08:55:05;5.10;;;0.75;;
62709;SDS011;48770;51.624;5.886;2022-09-09T08:57:48;4.43;;;0.75;;
62709;SDS011;48770;51.624;5.886;2022-09-09T09:00:17;1.17;;;0.60;;
62709;SDS011;48770;51.624;5.886;2022-09-09T09:05:44;4.32;;;0.80;;
62709;SDS011;48770;51.624;5.886;2022-09-09T09:08:39;2.60;;;0.80;;
62709;SDS011;48770;51.624;5.886;2022-09-09T09:11:12;4.60;;;0.80;;
62709;SDS011;48770;51.624;5.886;2022-09-09T09:13:40;2.05;;;0.52;;
62709;SDS011;48770;51.624;5.886;2022-09-09T09:19:03;2.05;;;0.60;;
62709;SDS011;48770;51.624;5.886;2022-09-09T09:24:23;2.70;;;0.75;;
62709;SDS011;48770;51.624;5.886;2022-09-09T09:26:57;2.25;;;0.50;;
62709;SDS011;48770;51.624;5.886;2022-09-09T09:29:29;2.00;;;0.40;;
62709;SDS011;48770;51.624;5.886;2022-09-09T09:31:55;1.90;;;0.63;;
62709;SDS011;48770;51.624;5.886;2022-09-09T09:34:24;1.00;;;0.40;;
62709;SDS011;48770;51.624;5.886;2022-09-09T09:36:54;1.17;;;0.50;;
62709;SDS011;48770;51.624;5.886;2022-09-09T09:39:31;1.38;;;0.40;;
62709;SDS011;48770;51.624;5.886;2022-09-09T09:42:09;1.27;;;0.38;;
62709;SDS011;48770;51.624;5.886;2022-09-09T09:44:39;2.10;;;0.40;;
62709;SDS011;48770;51.624;5.886;2022-09-09T09:47:12;2.83;;;0.73;;
62709;SDS011;48770;51.624;5.886;2022-09-09T09:49:50;2.67;;;0.80;;
62709;SDS011;48770;51.624;5.886;2022-09-09T09:52:23;3.40;;;0.55;;
62709;SDS011;48770;51.624;5.886;2022-09-09T09:54:51;3.33;;;0.77;;
62709;SDS011;48770;51.624;5.886;2022-09-09T09:57:18;1.80;;;0.55;;
62709;SDS011;48770;51.624;5.886;2022-09-09T10:00:02;0.80;;;0.50;;
62709;SDS011;48770;51.624;5.886;2022-09-09T10:02:36;2.90;;;0.60;;
62709;SDS011;48770;51.624;5.886;2022-09-09T10:05:05;2.00;;;0.30;;
62709;SDS011;48770;51.624;5.886;2022-09-09T10:07:34;1.90;;;0.40;;
62709;SDS011;48770;51.624;5.886;2022-09-09T10:09:59;1.88;;;0.60;;
62709;SDS011;48770;51.624;5.886;2022-09-09T10:20:54;3.15;;;0.60;;
62709;SDS011;48770;51.624;5.886;2022-09-09T10:26:16;1.30;;;0.32;;
62709;SDS011;48770;51.624;5.886;2022-09-09T10:34:32;5.15;;;0.50;;
62709;SDS011;48770;51.624;5.886;2022-09-09T10:37:36;4.07;;;0.55;;
62709;SDS011;48770;51.624;5.886;2022-09-09T10:45:48;4.88;;;1.00;;
62709;SDS011;48770;51.624;5.886;2022-09-09T10:56:54;2.83;;;0.75;;
62709;SDS011;48770;51.624;5.886;2022-09-09T10:59:36;3.05;;;0.88;;
62709;SDS011;48770;51.624;5.886;2022-09-09T11:04:35;3.38;;;1.00;;
62709;SDS011;48770;51.624;5.886;2022-09-09T11:07:11;2.38;;;0.70;;
62709;SDS011;48770;51.624;5.886;2022-09-09T11:09:43;2.13;;;0.50;;
62709;SDS011;48770;51.624;5.886;2022-09-09T11:12:17;2.97;;;0.75;;
62709;SDS011;48770;51.624;5.886;2022-09-09T11:14:54;2.50;;;0.50;;
62709;SDS011;48770;51.624;5.886;2022-09-09T11:17:26;1.67;;;0.50;;
62709;SDS011;48770;51.624;5.886;2022-09-09T11:20:00;3.88;;;0.88;;
62709;SDS011;48770;51.624;5.886;2022-09-09T11:22:27;2.95;;;0.50;;
62709;SDS011;48770;51.624;5.886;2022-09-09T11:30:49;2.47;;;0.75;;
62709;SDS011;48770;51.624;5.886;2022-09-09T11:35:56;3.15;;;0.60;;
62709;SDS011;48770;51.624;5.886;2022-09-09T11:38:45;2.03;;;0.70;;
62709;SDS011;48770;51.624;5.886;2022-09-09T11:41:12;3.28;;;0.82;;
62709;SDS011;48770;51.624;5.886;2022-09-09T11:43:43;5.35;;;1.17;;
62709;SDS011;48770;51.624;5.886;2022-09-09T11:46:10;2.53;;;0.50;;
62709;SDS011;48770;51.624;5.886;2022-09-09T11:48:42;4.88;;;1.20;;
62709;SDS011;48770;51.624;5.886;2022-09-09T11:51:25;3.53;;;1.52;;
62709;SDS011;48770;51.624;5.886;2022-09-09T11:53:54;5.57;;;1.70;;
62709;SDS011;48770;51.624;5.886;2022-09-09T11:56:42;3.53;;;1.70;;
62709;SDS011;48770;51.624;5.886;2022-09-09T11:59:22;4.25;;;1.90;;
62709;SDS011;48770;51.624;5.886;2022-09-09T12:01:59;3.55;;;2.20;;
62709;SDS011;48770;51.624;5.886;2022-09-09T12:04:39;3.20;;;2.22;;
62709;SDS011;48770;51.624;5.886;2022-09-09T12:09:50;7.35;;;4.30;;
62709;SDS011;48770;51.624;5.886;2022-09-09T12:14:57;15.88;;;10.02;;
62709;SDS011;48770;51.624;5.886;2022-09-09T12:17:37;14.50;;;9.57;;
62709;SDS011;48770;51.624;5.886;2022-09-09T12:20:17;16.80;;;9.23;;
62709;SDS011;48770;51.624;5.886;2022-09-09T12:28:27;12.63;;;8.35;;
62709;SDS011;48770;51.624;5.886;2022-09-09T12:31:08;13.00;;;7.95;;
62709;SDS011;48770;51.624;5.886;2022-09-09T12:33:42;11.30;;;7.40;;
62709;SDS011;48770;51.624;5.886;2022-09-09T12:36:14;11.15;;;7.22;;
62709;SDS011;48770;51.624;5.886;2022-09-09T12:38:43;9.23;;;6.70;;
62709;SDS011;48770;51.624;5.886;2022-09-09T12:41:22;9.68;;;6.20;;
62709;SDS011;48770;51.624;5.886;2022-09-09T12:43:50;8.32;;;5.30;;
62709;SDS011;48770;51.624;5.886;2022-09-09T12:46:27;8.48;;;5.82;;
62709;SDS011;48770;51.624;5.886;2022-09-09T12:52:48;9.32;;;5.72;;
62709;SDS011;48770;51.624;5.886;2022-09-09T12:54:55;9.45;;;5.05;;
62709;SDS011;48770;51.624;5.886;2022-09-09T12:57:22;8.82;;;5.50;;
62709;SDS011;48770;51.624;5.886;2022-09-09T12:59:50;7.13;;;4.78;;
62709;SDS011;48770;51.624;5.886;2022-09-09T13:02:22;7.40;;;5.07;;
62709;SDS011;48770;51.624;5.886;2022-09-09T13:04:50;7.10;;;4.15;;
62709;SDS011;48770;51.624;5.886;2022-09-09T13:07:17;9.95;;;4.88;;
62709;SDS011;48770;51.624;5.886;2022-09-09T13:09:44;6.57;;;4.40;;
62709;SDS011;48770;51.624;5.886;2022-09-09T13:12:13;6.22;;;4.15;;
62709;SDS011;48770;51.624;5.886;2022-09-09T13:14:42;7.03;;;4.00;;
62709;SDS011;48770;51.624;5.886;2022-09-09T13:17:15;6.90;;;3.85;;
62709;SDS011;48770;51.624;5.886;2022-09-09T13:19:45;6.20;;;3.80;;
62709;SDS011;48770;51.624;5.886;2022-09-09T13:22:19;5.55;;;3.55;;
62709;SDS011;48770;51.624;5.886;2022-09-09T13:24:47;6.43;;;3.78;;
62709;SDS011;48770;51.624;5.886;2022-09-09T13:30:19;6.07;;;3.53;;
62709;SDS011;48770;51.624;5.886;2022-09-09T13:32:47;5.15;;;3.28;;
62709;SDS011;48770;51.624;5.886;2022-09-09T13:35:26;5.30;;;3.47;;
62709;SDS011;48770;51.624;5.886;2022-09-09T13:37:51;5.07;;;3.30;;
62709;SDS011;48770;51.624;5.886;2022-09-09T13:40:18;4.75;;;3.08;;
62709;SDS011;48770;51.624;5.886;2022-09-09T13:42:44;4.82;;;2.65;;
62709;SDS011;48770;51.624;5.886;2022-09-09T13:45:24;5.68;;;2.72;;
62709;SDS011;48770;51.624;5.886;2022-09-09T13:47:54;5.30;;;2.90;;
62709;SDS011;48770;51.624;5.886;2022-09-09T13:52:47;3.95;;;2.40;;
62709;SDS011;48770;51.624;5.886;2022-09-09T13:55:16;3.92;;;2.30;;
62709;SDS011;48770;51.624;5.886;2022-09-09T13:57:50;3.83;;;2.25;;
62709;SDS011;48770;51.624;5.886;2022-09-09T14:00:35;6.80;;;2.40;;
62709;SDS011;48770;51.624;5.886;2022-09-09T14:03:01;3.17;;;1.98;;
62709;SDS011;48770;51.624;5.886;2022-09-09T14:05:27;4.82;;;2.50;;
62709;SDS011;48770;51.624;5.886;2022-09-09T14:07:53;5.88;;;2.25;;
62709;SDS011;48770;51.624;5.886;2022-09-09T14:10:18;12.13;;;2.20;;
62709;SDS011;48770;51.624;5.886;2022-09-09T14:12:44;7.40;;;2.45;;
62709;SDS011;48770;51.624;5.886;2022-09-09T14:15:11;4.18;;;2.47;;
62709;SDS011;48770;51.624;5.886;2022-09-09T14:17:37;4.00;;;1.73;;
62709;SDS011;48770;51.624;5.886;2022-09-09T14:20:05;34.75;;;4.38;;
62709;SDS011;48770;51.624;5.886;2022-09-09T14:22:35;11.80;;;2.10;;
62709;SDS011;48770;51.624;5.886;2022-09-09T14:25:01;7.82;;;2.53;;
62709;SDS011;48770;51.624;5.886;2022-09-09T14:27:28;6.53;;;2.20;;
62709;SDS011;48770;51.624;5.886;2022-09-09T14:29:55;6.03;;;2.00;;
62709;SDS011;48770;51.624;5.886;2022-09-09T14:32:20;7.50;;;1.98;;
62709;SDS011;48770;51.624;5.886;2022-09-09T14:34:46;7.63;;;2.08;;
62709;SDS011;48770;51.624;5.886;2022-09-09T14:37:14;3.95;;;1.60;;
62709;SDS011;48770;51.624;5.886;2022-09-09T14:39:40;12.00;;;3.47;;
62709;SDS011;48770;51.624;5.886;2022-09-09T14:42:05;23.63;;;8.90;;
62709;SDS011;48770;51.624;5.886;2022-09-09T14:44:31;35.20;;;8.55;;
62709;SDS011;48770;51.624;5.886;2022-09-09T14:46:56;38.95;;;10.02;;
62709;SDS011;48770;51.624;5.886;2022-09-09T14:49:23;41.47;;;12.13;;
62709;SDS011;48770;51.624;5.886;2022-09-09T14:51:48;41.08;;;12.75;;
62709;SDS011;48770;51.624;5.886;2022-09-09T14:54:14;52.25;;;15.70;;
62709;SDS011;48770;51.624;5.886;2022-09-09T14:56:39;58.60;;;23.48;;
62709;SDS011;48770;51.624;5.886;2022-09-09T14:59:05;59.15;;;32.38;;
62709;SDS011;48770;51.624;5.886;2022-09-09T15:01:30;85.05;;;58.83;;
62709;SDS011;48770;51.624;5.886;2022-09-09T15:03:57;107.50;;;72.60;;
62709;SDS011;48770;51.624;5.886;2022-09-09T15:06:28;143.02;;;117.75;;
62709;SDS011;48770;51.624;5.886;2022-09-09T15:08:56;179.85;;;147.38;;
62709;SDS011;48770;51.624;5.886;2022-09-09T15:11:29;173.68;;;147.32;;
62709;SDS011;48770;51.624;5.886;2022-09-09T15:13:57;183.30;;;156.25;;
62709;SDS011;48770;51.624;5.886;2022-09-09T15:16:24;178.65;;;159.43;;
62709;SDS011;48770;51.624;5.886;2022-09-09T15:18:53;173.30;;;151.32;;
62709;SDS011;48770;51.624;5.886;2022-09-09T15:21:20;173.25;;;155.55;;
62709;SDS011;48770;51.624;5.886;2022-09-09T15:23:47;174.65;;;155.82;;
62709;SDS011;48770;51.624;5.886;2022-09-09T15:26:13;170.15;;;152.23;;
62709;SDS011;48770;51.624;5.886;2022-09-09T15:28:40;170.43;;;152.77;;
62709;SDS011;48770;51.624;5.886;2022-09-09T15:33:36;157.70;;;141.98;;
62709;SDS011;48770;51.624;5.886;2022-09-09T15:36:15;158.55;;;141.90;;
62709;SDS011;48770;51.624;5.886;2022-09-09T15:38:51;151.90;;;136.52;;
62709;SDS011;48770;51.624;5.886;2022-09-09T15:41:18;150.00;;;134.55;;
62709;SDS011;48770;51.624;5.886;2022-09-09T15:43:46;149.77;;;134.07;;
62709;SDS011;48770;51.624;5.886;2022-09-09T15:48:41;148.07;;;132.70;;
62709;SDS011;48770;51.624;5.886;2022-09-09T15:51:06;142.45;;;128.38;;
62709;SDS011;48770;51.624;5.886;2022-09-09T15:53:32;140.77;;;126.47;;
62709;SDS011;48770;51.624;5.886;2022-09-09T15:55:58;139.68;;;125.10;;
62709;SDS011;48770;51.624;5.886;2022-09-09T15:58:24;136.93;;;123.18;;
62709;SDS011;48770;51.624;5.886;2022-09-09T16:00:49;135.70;;;122.57;;
62709;SDS011;48770;51.624;5.886;2022-09-09T16:03:15;130.52;;;118.00;;
62709;SDS011;48770;51.624;5.886;2022-09-09T16:05:40;132.13;;;119.03;;
62709;SDS011;48770;51.624;5.886;2022-09-09T16:08:06;125.43;;;112.60;;
62709;SDS011;48770;51.624;5.886;2022-09-09T16:10:31;121.32;;;109.60;;
62709;SDS011;48770;51.624;5.886;2022-09-09T16:12:56;116.47;;;105.20;;
62709;SDS011;48770;51.624;5.886;2022-09-09T16:15:22;113.97;;;102.77;;
62709;SDS011;48770;51.624;5.886;2022-09-09T16:17:48;110.03;;;99.18;;
62709;SDS011;48770;51.624;5.886;2022-09-09T16:20:14;110.25;;;98.55;;
62709;SDS011;48770;51.624;5.886;2022-09-09T16:22:40;105.93;;;95.85;;
62709;SDS011;48770;51.624;5.886;2022-09-09T16:25:05;108.53;;;97.28;;
62709;SDS011;48770;51.624;5.886;2022-09-09T16:27:31;106.25;;;96.18;;
62709;SDS011;48770;51.624;5.886;2022-09-09T16:29:56;113.85;;;102.47;;
62709;SDS011;48770;51.624;5.886;2022-09-09T16:32:22;112.13;;;101.25;;
62709;SDS011;48770;51.624;5.886;2022-09-09T16:34:47;110.30;;;99.40;;
62709;SDS011;48770;51.624;5.886;2022-09-09T16:37:13;107.27;;;97.07;;
62709;SDS011;48770;51.624;5.886;2022-09-09T16:39:38;108.40;;;97.60;;
62709;SDS011;48770;51.624;5.886;2022-09-09T16:42:03;105.87;;;95.47;;
62709;SDS011;48770;51.624;5.886;2022-09-09T16:44:29;101.57;;;92.00;;
62709;SDS011;48770;51.624;5.886;2022-09-09T16:46:55;104.22;;;94.75;;
62709;SDS011;48770;51.624;5.886;2022-09-09T16:49:21;103.03;;;93.15;;
62709;SDS011;48770;51.624;5.886;2022-09-09T16:51:47;97.85;;;88.65;;
62709;SDS011;48770;51.624;5.886;2022-09-09T16:54:14;96.35;;;87.40;;
62709;SDS011;48770;51.624;5.886;2022-09-09T16:56:42;98.72;;;89.13;;
62709;SDS011;48770;51.624;5.886;2022-09-09T16:59:10;95.57;;;86.88;;
62709;SDS011;48770;51.624;5.886;2022-09-09T17:01:38;94.65;;;85.85;;
62709;SDS011;48770;51.624;5.886;2022-09-09T17:04:06;98.22;;;89.07;;
62709;SDS011;48770;51.624;5.886;2022-09-09T17:06:33;91.70;;;83.30;;
62709;SDS011;48770;51.624;5.886;2022-09-09T17:09:05;84.63;;;76.88;;
62709;SDS011;48770;51.624;5.886;2022-09-09T17:11:33;79.57;;;72.10;;